sensor_id;sensor_type;location;lat;lon;timestamp;P1;durP1;ratioP1;P2;durP2;ratioP2
8060;SDS011;4073;42.626;25.386;2023-04-01T00:01:54;18.50;;;15.10;;
8060;SDS011;4073;42.626;25.386;2023-04-01T00:04:20;18.67;;;13.90;;
8060;SDS011;4073;42.626;25.386;2023-04-01T00:06:45;20.27;;;13.70;;
8060;SDS011;4073;42.626;25.386;2023-04-01T00:09:12;16.30;;;13.20;;
8060;SDS011;4073;42.626;25.386;2023-04-01T00:11:38;14.40;;;12.63;;
8060;SDS011;4073;42.626;25.386;2023-04-01T00:14:04;16.83;;;12.47;;
8060;SDS011;4073;42.626;25.386;2023-04-01T00:16:32;51.97;;;32.53;;
8060;SDS011;4073;42.626;25.386;2023-04-01T00:18:58;36.30;;;23.53;;
8060;SDS011;4073;42.626;25.386;2023-04-01T00:21:23;38.37;;;26.13;;
8060;SDS011;4073;42.626;25.386;2023-04-01T00:23:50;20.97;;;15.60;;
8060;SDS011;4073;42.626;25.386;2023-04-01T00:26:16;17.70;;;12.57;;
8060;SDS011;4073;42.626;25.386;2023-04-01T00:28:44;20.07;;;14.87;;
8060;SDS011;4073;42.626;25.386;2023-04-01T00:31:10;57.83;;;33.20;;
8060;SDS011;4073;42.626;25.386;2023-04-01T00:33:39;21.83;;;14.87;;
8060;SDS011;4073;42.626;25.386;2023-04-01T00:36:16;22.27;;;16.47;;
8060;SDS011;4073;42.626;25.386;2023-04-01T00:38:43;25.17;;;16.70;;
8060;SDS011;4073;42.626;25.386;2023-04-01T00:41:10;17.97;;;14.03;;
8060;SDS011;4073;42.626;25.386;2023-04-01T00:43:39;16.13;;;13.03;;
8060;SDS011;4073;42.626;25.386;2023-04-01T00:46:05;12.20;;;10.80;;
8060;SDS011;4073;42.626;25.386;2023-04-01T00:48:33;15.73;;;12.33;;
8060;SDS011;4073;42.626;25.386;2023-04-01T00:51:10;17.17;;;12.47;;
8060;SDS011;4073;42.626;25.386;2023-04-01T00:53:41;11.87;;;9.43;;
8060;SDS011;4073;42.626;25.386;2023-04-01T00:56:12;13.33;;;9.83;;
8060;SDS011;4073;42.626;25.386;2023-04-01T00:58:51;12.63;;;11.27;;
8060;SDS011;4073;42.626;25.386;2023-04-01T01:01:20;12.20;;;10.57;;
8060;SDS011;4073;42.626;25.386;2023-04-01T01:03:47;14.03;;;10.53;;
8060;SDS011;4073;42.626;25.386;2023-04-01T01:11:37;13.00;;;10.47;;
8060;SDS011;4073;42.626;25.386;2023-04-01T01:22:52;12.57;;;9.03;;
8060;SDS011;4073;42.626;25.386;2023-04-01T01:25:35;10.47;;;8.90;;
8060;SDS011;4073;42.626;25.386;2023-04-01T01:36:06;18.07;;;13.10;;
8060;SDS011;4073;42.626;25.386;2023-04-01T01:38:37;16.57;;;11.37;;
8060;SDS011;4073;42.626;25.386;2023-04-01T01:41:03;13.70;;;11.20;;
8060;SDS011;4073;42.626;25.386;2023-04-01T01:43:36;13.27;;;10.93;;
8060;SDS011;4073;42.626;25.386;2023-04-01T01:46:10;11.93;;;10.17;;
8060;SDS011;4073;42.626;25.386;2023-04-01T01:48:39;12.87;;;11.23;;
8060;SDS011;4073;42.626;25.386;2023-04-01T01:51:08;14.83;;;11.23;;
8060;SDS011;4073;42.626;25.386;2023-04-01T01:53:33;15.43;;;11.53;;
8060;SDS011;4073;42.626;25.386;2023-04-01T01:55:59;13.33;;;11.10;;
8060;SDS011;4073;42.626;25.386;2023-04-01T01:58:39;14.47;;;12.00;;
8060;SDS011;4073;42.626;25.386;2023-04-01T02:01:11;17.00;;;11.97;;
8060;SDS011;4073;42.626;25.386;2023-04-01T02:03:39;15.30;;;11.30;;
8060;SDS011;4073;42.626;25.386;2023-04-01T02:06:08;16.43;;;12.43;;
8060;SDS011;4073;42.626;25.386;2023-04-01T02:09:18;17.90;;;12.13;;
8060;SDS011;4073;42.626;25.386;2023-04-01T02:11:32;17.50;;;11.63;;
8060;SDS011;4073;42.626;25.386;2023-04-01T02:14:02;18.67;;;13.97;;
8060;SDS011;4073;42.626;25.386;2023-04-01T02:16:33;15.33;;;12.97;;
8060;SDS011;4073;42.626;25.386;2023-04-01T02:19:04;17.83;;;12.60;;
8060;SDS011;4073;42.626;25.386;2023-04-01T02:21:32;17.00;;;12.47;;
8060;SDS011;4073;42.626;25.386;2023-04-01T02:24:00;15.17;;;11.30;;
8060;SDS011;4073;42.626;25.386;2023-04-01T02:26:29;13.77;;;12.17;;
8060;SDS011;4073;42.626;25.386;2023-04-01T02:28:55;15.00;;;10.93;;
8060;SDS011;4073;42.626;25.386;2023-04-01T02:31:23;15.10;;;10.77;;
8060;SDS011;4073;42.626;25.386;2023-04-01T02:33:49;14.33;;;11.57;;
8060;SDS011;4073;42.626;25.386;2023-04-01T02:36:17;18.27;;;11.17;;
8060;SDS011;4073;42.626;25.386;2023-04-01T02:38:43;13.73;;;10.30;;
8060;SDS011;4073;42.626;25.386;2023-04-01T02:41:10;10.00;;;9.00;;
8060;SDS011;4073;42.626;25.386;2023-04-01T02:43:36;11.53;;;9.90;;
8060;SDS011;4073;42.626;25.386;2023-04-01T02:46:22;16.83;;;10.07;;
8060;SDS011;4073;42.626;25.386;2023-04-01T02:48:48;16.90;;;10.97;;
8060;SDS011;4073;42.626;25.386;2023-04-01T02:51:13;14.47;;;10.00;;
8060;SDS011;4073;42.626;25.386;2023-04-01T02:53:38;16.70;;;11.60;;
8060;SDS011;4073;42.626;25.386;2023-04-01T02:56:04;16.37;;;10.87;;
8060;SDS011;4073;42.626;25.386;2023-04-01T02:58:30;13.73;;;9.50;;
8060;SDS011;4073;42.626;25.386;2023-04-01T03:00:55;13.27;;;9.70;;
8060;SDS011;4073;42.626;25.386;2023-04-01T03:03:21;10.37;;;9.37;;
8060;SDS011;4073;42.626;25.386;2023-04-01T03:05:46;12.53;;;10.57;;
8060;SDS011;4073;42.626;25.386;2023-04-01T03:08:11;13.97;;;10.23;;
8060;SDS011;4073;42.626;25.386;2023-04-01T03:10:37;12.07;;;10.13;;
8060;SDS011;4073;42.626;25.386;2023-04-01T03:13:02;15.70;;;10.47;;
8060;SDS011;4073;42.626;25.386;2023-04-01T03:15:28;10.10;;;8.87;;
8060;SDS011;4073;42.626;25.386;2023-04-01T03:17:53;15.07;;;10.53;;
8060;SDS011;4073;42.626;25.386;2023-04-01T03:20:19;18.90;;;10.97;;
8060;SDS011;4073;42.626;25.386;2023-04-01T03:22:45;15.20;;;11.90;;
8060;SDS011;4073;42.626;25.386;2023-04-01T03:25:11;17.87;;;12.67;;
8060;SDS011;4073;42.626;25.386;2023-04-01T03:27:36;16.37;;;11.97;;
8060;SDS011;4073;42.626;25.386;2023-04-01T03:30:05;22.63;;;16.27;;
8060;SDS011;4073;42.626;25.386;2023-04-01T03:32:31;18.77;;;14.17;;
8060;SDS011;4073;42.626;25.386;2023-04-01T03:34:57;18.43;;;13.90;;
8060;SDS011;4073;42.626;25.386;2023-04-01T03:37:23;19.00;;;14.03;;
8060;SDS011;4073;42.626;25.386;2023-04-01T03:39:49;16.13;;;13.13;;
8060;SDS011;4073;42.626;25.386;2023-04-01T03:42:15;16.17;;;11.83;;
8060;SDS011;4073;42.626;25.386;2023-04-01T03:44:41;19.40;;;13.20;;
8060;SDS011;4073;42.626;25.386;2023-04-01T03:47:06;18.57;;;13.27;;
8060;SDS011;4073;42.626;25.386;2023-04-01T03:49:34;21.27;;;15.60;;
8060;SDS011;4073;42.626;25.386;2023-04-01T03:51:59;21.93;;;13.23;;
8060;SDS011;4073;42.626;25.386;2023-04-01T03:54:25;16.43;;;12.10;;
8060;SDS011;4073;42.626;25.386;2023-04-01T03:56:50;12.90;;;11.37;;
8060;SDS011;4073;42.626;25.386;2023-04-01T03:59:16;13.47;;;10.63;;
8060;SDS011;4073;42.626;25.386;2023-04-01T04:01:41;17.13;;;13.27;;
8060;SDS011;4073;42.626;25.386;2023-04-01T04:04:07;13.03;;;11.07;;
8060;SDS011;4073;42.626;25.386;2023-04-01T04:06:32;16.37;;;11.27;;
8060;SDS011;4073;42.626;25.386;2023-04-01T04:08:58;13.90;;;10.40;;
8060;SDS011;4073;42.626;25.386;2023-04-01T04:11:24;15.53;;;13.20;;
8060;SDS011;4073;42.626;25.386;2023-04-01T04:13:50;14.83;;;12.97;;
8060;SDS011;4073;42.626;25.386;2023-04-01T04:16:17;13.03;;;11.50;;
8060;SDS011;4073;42.626;25.386;2023-04-01T04:18:43;16.20;;;12.20;;
8060;SDS011;4073;42.626;25.386;2023-04-01T04:21:11;13.00;;;10.93;;
8060;SDS011;4073;42.626;25.386;2023-04-01T04:23:38;18.73;;;12.80;;
8060;SDS011;4073;42.626;25.386;2023-04-01T04:26:05;16.00;;;11.87;;
8060;SDS011;4073;42.626;25.386;2023-04-01T04:28:32;18.13;;;15.03;;
8060;SDS011;4073;42.626;25.386;2023-04-01T04:30:58;15.73;;;12.97;;
8060;SDS011;4073;42.626;25.386;2023-04-01T04:33:24;22.10;;;16.40;;
8060;SDS011;4073;42.626;25.386;2023-04-01T04:35:50;17.93;;;14.53;;
8060;SDS011;4073;42.626;25.386;2023-04-01T04:38:16;18.13;;;16.23;;
8060;SDS011;4073;42.626;25.386;2023-04-01T04:40:42;29.83;;;26.60;;
8060;SDS011;4073;42.626;25.386;2023-04-01T04:43:10;23.97;;;17.73;;
8060;SDS011;4073;42.626;25.386;2023-04-01T04:45:36;24.37;;;18.60;;
8060;SDS011;4073;42.626;25.386;2023-04-01T04:48:01;37.27;;;22.20;;
8060;SDS011;4073;42.626;25.386;2023-04-01T04:50:27;46.60;;;32.97;;
8060;SDS011;4073;42.626;25.386;2023-04-01T04:52:52;29.20;;;17.73;;
8060;SDS011;4073;42.626;25.386;2023-04-01T04:55:18;14.40;;;11.00;;
8060;SDS011;4073;42.626;25.386;2023-04-01T04:57:44;15.03;;;10.63;;
8060;SDS011;4073;42.626;25.386;2023-04-01T05:00:09;12.83;;;10.80;;
8060;SDS011;4073;42.626;25.386;2023-04-01T05:02:36;14.77;;;9.93;;
8060;SDS011;4073;42.626;25.386;2023-04-01T05:05:01;47.57;;;25.60;;
8060;SDS011;4073;42.626;25.386;2023-04-01T05:07:27;41.73;;;21.90;;
8060;SDS011;4073;42.626;25.386;2023-04-01T05:09:52;22.83;;;14.23;;
8060;SDS011;4073;42.626;25.386;2023-04-01T05:12:18;84.60;;;44.50;;
8060;SDS011;4073;42.626;25.386;2023-04-01T05:14:43;111.47;;;53.67;;
8060;SDS011;4073;42.626;25.386;2023-04-01T05:17:09;66.80;;;39.37;;
8060;SDS011;4073;42.626;25.386;2023-04-01T05:19:36;70.07;;;41.20;;
8060;SDS011;4073;42.626;25.386;2023-04-01T05:22:02;39.97;;;22.57;;
8060;SDS011;4073;42.626;25.386;2023-04-01T05:24:28;29.07;;;16.07;;
8060;SDS011;4073;42.626;25.386;2023-04-01T05:26:53;26.53;;;17.03;;
8060;SDS011;4073;42.626;25.386;2023-04-01T05:29:19;12.07;;;9.77;;
8060;SDS011;4073;42.626;25.386;2023-04-01T05:31:44;12.73;;;10.07;;
8060;SDS011;4073;42.626;25.386;2023-04-01T05:34:10;13.30;;;10.57;;
8060;SDS011;4073;42.626;25.386;2023-04-01T05:36:35;10.93;;;9.70;;
8060;SDS011;4073;42.626;25.386;2023-04-01T05:39:02;12.47;;;9.90;;
8060;SDS011;4073;42.626;25.386;2023-04-01T05:41:28;15.33;;;11.37;;
8060;SDS011;4073;42.626;25.386;2023-04-01T05:43:53;12.20;;;9.53;;
8060;SDS011;4073;42.626;25.386;2023-04-01T05:46:19;9.93;;;8.93;;
8060;SDS011;4073;42.626;25.386;2023-04-01T05:48:44;17.97;;;14.10;;
8060;SDS011;4073;42.626;25.386;2023-04-01T05:51:13;16.13;;;14.00;;
8060;SDS011;4073;42.626;25.386;2023-04-01T05:53:39;19.27;;;15.40;;
8060;SDS011;4073;42.626;25.386;2023-04-01T05:56:06;34.67;;;31.30;;
8060;SDS011;4073;42.626;25.386;2023-04-01T05:58:34;16.50;;;15.00;;
8060;SDS011;4073;42.626;25.386;2023-04-01T06:01:10;14.47;;;11.07;;
8060;SDS011;4073;42.626;25.386;2023-04-01T06:03:36;15.13;;;11.33;;
8060;SDS011;4073;42.626;25.386;2023-04-01T06:06:02;15.27;;;10.60;;
8060;SDS011;4073;42.626;25.386;2023-04-01T06:08:29;15.73;;;11.07;;
8060;SDS011;4073;42.626;25.386;2023-04-01T06:25:22;13.73;;;11.57;;
8060;SDS011;4073;42.626;25.386;2023-04-01T06:33:29;119.93;;;63.40;;
8060;SDS011;4073;42.626;25.386;2023-04-01T06:57:45;21.83;;;15.13;;
8060;SDS011;4073;42.626;25.386;2023-04-01T07:00:15;15.87;;;14.13;;
8060;SDS011;4073;42.626;25.386;2023-04-01T07:02:54;17.13;;;14.33;;
8060;SDS011;4073;42.626;25.386;2023-04-01T07:05:25;22.93;;;15.03;;
8060;SDS011;4073;42.626;25.386;2023-04-01T07:07:56;21.53;;;18.07;;
8060;SDS011;4073;42.626;25.386;2023-04-01T07:10:38;20.80;;;16.37;;
8060;SDS011;4073;42.626;25.386;2023-04-01T07:13:29;23.17;;;18.27;;
8060;SDS011;4073;42.626;25.386;2023-04-01T07:18:38;26.97;;;16.37;;
8060;SDS011;4073;42.626;25.386;2023-04-01T07:23:56;24.90;;;17.47;;
8060;SDS011;4073;42.626;25.386;2023-04-01T07:26:28;26.73;;;17.83;;
8060;SDS011;4073;42.626;25.386;2023-04-01T07:28:53;23.87;;;18.30;;
8060;SDS011;4073;42.626;25.386;2023-04-01T07:34:05;25.00;;;17.13;;
8060;SDS011;4073;42.626;25.386;2023-04-01T07:48:09;20.60;;;15.13;;
8060;SDS011;4073;42.626;25.386;2023-04-01T07:56:10;21.27;;;14.77;;
8060;SDS011;4073;42.626;25.386;2023-04-01T08:01:26;16.43;;;14.00;;
8060;SDS011;4073;42.626;25.386;2023-04-01T08:06:47;15.13;;;12.90;;
8060;SDS011;4073;42.626;25.386;2023-04-01T08:09:20;16.37;;;12.20;;
8060;SDS011;4073;42.626;25.386;2023-04-01T08:22:36;10.47;;;8.43;;
8060;SDS011;4073;42.626;25.386;2023-04-01T08:25:06;9.17;;;7.80;;
8060;SDS011;4073;42.626;25.386;2023-04-01T08:27:37;9.83;;;7.97;;
8060;SDS011;4073;42.626;25.386;2023-04-01T08:30:23;11.10;;;7.93;;
8060;SDS011;4073;42.626;25.386;2023-04-01T08:32:59;13.47;;;9.37;;
8060;SDS011;4073;42.626;25.386;2023-04-01T08:36:06;8.30;;;7.20;;
8060;SDS011;4073;42.626;25.386;2023-04-01T08:38:38;8.17;;;5.47;;
8060;SDS011;4073;42.626;25.386;2023-04-01T08:49:04;11.07;;;6.77;;
8060;SDS011;4073;42.626;25.386;2023-04-01T08:52:01;7.90;;;6.43;;
8060;SDS011;4073;42.626;25.386;2023-04-01T09:03:37;6.23;;;4.13;;
8060;SDS011;4073;42.626;25.386;2023-04-01T09:22:58;9.20;;;5.60;;
8060;SDS011;4073;42.626;25.386;2023-04-01T09:27:55;6.67;;;4.47;;
8060;SDS011;4073;42.626;25.386;2023-04-01T09:30:33;7.60;;;4.73;;
8060;SDS011;4073;42.626;25.386;2023-04-01T09:35:48;9.70;;;5.00;;
8060;SDS011;4073;42.626;25.386;2023-04-01T09:38:43;6.63;;;4.43;;
8060;SDS011;4073;42.626;25.386;2023-04-01T09:44:11;5.40;;;4.50;;
8060;SDS011;4073;42.626;25.386;2023-04-01T09:47:15;7.97;;;4.27;;
8060;SDS011;4073;42.626;25.386;2023-04-01T09:52:26;8.47;;;4.23;;
8060;SDS011;4073;42.626;25.386;2023-04-01T10:00:55;9.80;;;4.70;;
8060;SDS011;4073;42.626;25.386;2023-04-01T10:15:08;7.10;;;4.53;;
8060;SDS011;4073;42.626;25.386;2023-04-01T10:26:02;7.83;;;4.27;;
8060;SDS011;4073;42.626;25.386;2023-04-01T10:28:37;7.70;;;4.13;;
8060;SDS011;4073;42.626;25.386;2023-04-01T10:51:25;7.73;;;3.53;;
8060;SDS011;4073;42.626;25.386;2023-04-01T10:55:04;6.80;;;3.67;;
8060;SDS011;4073;42.626;25.386;2023-04-01T10:57:24;6.83;;;3.87;;
8060;SDS011;4073;42.626;25.386;2023-04-01T11:03:18;5.23;;;4.10;;
8060;SDS011;4073;42.626;25.386;2023-04-01T11:20:22;6.47;;;4.07;;
8060;SDS011;4073;42.626;25.386;2023-04-01T11:40:26;9.60;;;4.90;;
8060;SDS011;4073;42.626;25.386;2023-04-01T12:02:03;7.00;;;3.97;;
8060;SDS011;4073;42.626;25.386;2023-04-01T12:18:02;8.97;;;4.37;;
8060;SDS011;4073;42.626;25.386;2023-04-01T12:20:34;15.60;;;4.53;;
8060;SDS011;4073;42.626;25.386;2023-04-01T12:31:03;5.60;;;3.33;;
8060;SDS011;4073;42.626;25.386;2023-04-01T12:42:11;10.77;;;3.73;;
8060;SDS011;4073;42.626;25.386;2023-04-01T12:50:22;7.17;;;3.27;;
8060;SDS011;4073;42.626;25.386;2023-04-01T12:55:51;13.43;;;3.77;;
8060;SDS011;4073;42.626;25.386;2023-04-01T13:20:44;9.50;;;4.27;;
8060;SDS011;4073;42.626;25.386;2023-04-01T13:23:41;10.23;;;4.27;;
8060;SDS011;4073;42.626;25.386;2023-04-01T13:29:11;9.77;;;4.60;;
8060;SDS011;4073;42.626;25.386;2023-04-01T13:40:04;10.53;;;4.30;;
8060;SDS011;4073;42.626;25.386;2023-04-01T13:51:07;5.63;;;2.97;;
8060;SDS011;4073;42.626;25.386;2023-04-01T14:07:14;7.73;;;3.93;;
8060;SDS011;4073;42.626;25.386;2023-04-01T14:17:54;7.77;;;4.37;;
8060;SDS011;4073;42.626;25.386;2023-04-01T14:21:17;12.43;;;3.73;;
8060;SDS011;4073;42.626;25.386;2023-04-01T14:34:59;15.20;;;5.43;;
8060;SDS011;4073;42.626;25.386;2023-04-01T14:41:05;8.57;;;4.43;;
8060;SDS011;4073;42.626;25.386;2023-04-01T14:51:56;7.30;;;4.40;;
8060;SDS011;4073;42.626;25.386;2023-04-01T14:54:31;6.37;;;4.23;;
8060;SDS011;4073;42.626;25.386;2023-04-01T14:59:54;7.87;;;5.87;;
8060;SDS011;4073;42.626;25.386;2023-04-01T15:08:20;5.30;;;4.10;;
8060;SDS011;4073;42.626;25.386;2023-04-01T15:11:22;7.27;;;4.20;;
8060;SDS011;4073;42.626;25.386;2023-04-01T15:17:39;6.27;;;5.13;;
8060;SDS011;4073;42.626;25.386;2023-04-01T15:28:13;5.60;;;4.10;;
8060;SDS011;4073;42.626;25.386;2023-04-01T15:30:52;7.10;;;6.40;;
8060;SDS011;4073;42.626;25.386;2023-04-01T15:39:13;5.57;;;3.33;;
8060;SDS011;4073;42.626;25.386;2023-04-01T15:49:51;2.50;;;2.30;;
8060;SDS011;4073;42.626;25.386;2023-04-01T15:52:35;3.27;;;2.97;;
8060;SDS011;4073;42.626;25.386;2023-04-01T16:00:29;2.60;;;2.40;;
8060;SDS011;4073;42.626;25.386;2023-04-01T16:08:25;5.47;;;3.37;;
8060;SDS011;4073;42.626;25.386;2023-04-01T16:22:32;10.87;;;7.47;;
8060;SDS011;4073;42.626;25.386;2023-04-01T16:29:35;17.33;;;13.33;;
8060;SDS011;4073;42.626;25.386;2023-04-01T16:35:13;18.43;;;14.63;;
8060;SDS011;4073;42.626;25.386;2023-04-01T16:37:36;21.30;;;16.63;;
8060;SDS011;4073;42.626;25.386;2023-04-01T16:40:25;19.30;;;15.53;;
8060;SDS011;4073;42.626;25.386;2023-04-01T16:45:53;21.87;;;19.20;;
8060;SDS011;4073;42.626;25.386;2023-04-01T16:48:36;19.10;;;15.37;;
8060;SDS011;4073;42.626;25.386;2023-04-01T16:51:17;15.80;;;11.90;;
8060;SDS011;4073;42.626;25.386;2023-04-01T16:54:04;9.03;;;7.67;;
8060;SDS011;4073;42.626;25.386;2023-04-01T16:56:54;10.00;;;6.43;;
8060;SDS011;4073;42.626;25.386;2023-04-01T16:59:29;6.40;;;5.77;;
8060;SDS011;4073;42.626;25.386;2023-04-01T17:20:31;13.13;;;11.80;;
8060;SDS011;4073;42.626;25.386;2023-04-01T17:23:10;15.07;;;12.33;;
8060;SDS011;4073;42.626;25.386;2023-04-01T17:25:55;14.63;;;12.27;;
8060;SDS011;4073;42.626;25.386;2023-04-01T17:45:03;7.27;;;6.30;;
8060;SDS011;4073;42.626;25.386;2023-04-01T18:06:25;9.83;;;8.13;;
8060;SDS011;4073;42.626;25.386;2023-04-01T18:09:00;12.20;;;11.00;;
8060;SDS011;4073;42.626;25.386;2023-04-01T18:22:43;7.77;;;6.97;;
8060;SDS011;4073;42.626;25.386;2023-04-01T18:25:46;9.27;;;8.33;;
8060;SDS011;4073;42.626;25.386;2023-04-01T18:30:39;10.50;;;9.40;;
8060;SDS011;4073;42.626;25.386;2023-04-01T18:35:53;7.53;;;6.73;;
8060;SDS011;4073;42.626;25.386;2023-04-01T18:41:31;8.40;;;7.60;;
8060;SDS011;4073;42.626;25.386;2023-04-01T18:46:50;5.07;;;4.00;;
8060;SDS011;4073;42.626;25.386;2023-04-01T18:52:13;4.53;;;3.97;;
8060;SDS011;4073;42.626;25.386;2023-04-01T18:54:49;3.10;;;2.80;;
8060;SDS011;4073;42.626;25.386;2023-04-01T18:57:18;2.27;;;2.10;;
8060;SDS011;4073;42.626;25.386;2023-04-01T18:59:46;28.00;;;16.37;;
8060;SDS011;4073;42.626;25.386;2023-04-01T19:02:34;5.17;;;3.87;;
8060;SDS011;4073;42.626;25.386;2023-04-01T19:05:19;7.00;;;5.57;;
8060;SDS011;4073;42.626;25.386;2023-04-01T19:07:53;8.50;;;6.47;;
8060;SDS011;4073;42.626;25.386;2023-04-01T19:13:15;9.63;;;6.87;;
8060;SDS011;4073;42.626;25.386;2023-04-01T19:18:57;15.90;;;11.10;;
8060;SDS011;4073;42.626;25.386;2023-04-01T19:21:27;17.73;;;15.57;;
8060;SDS011;4073;42.626;25.386;2023-04-01T19:51:58;12.93;;;11.53;;
8060;SDS011;4073;42.626;25.386;2023-04-01T19:59:45;10.97;;;8.90;;
8060;SDS011;4073;42.626;25.386;2023-04-01T20:14:04;3.20;;;2.93;;
8060;SDS011;4073;42.626;25.386;2023-04-01T20:20:01;2.90;;;2.07;;
8060;SDS011;4073;42.626;25.386;2023-04-01T20:25:13;2.27;;;2.07;;
8060;SDS011;4073;42.626;25.386;2023-04-01T20:27:43;2.83;;;2.30;;
8060;SDS011;4073;42.626;25.386;2023-04-01T20:30:32;2.47;;;2.17;;
8060;SDS011;4073;42.626;25.386;2023-04-01T20:44:11;6.57;;;4.83;;
8060;SDS011;4073;42.626;25.386;2023-04-01T20:49:33;4.33;;;2.23;;
8060;SDS011;4073;42.626;25.386;2023-04-01T21:24:30;9.47;;;7.50;;
8060;SDS011;4073;42.626;25.386;2023-04-01T21:32:25;2.60;;;2.40;;
8060;SDS011;4073;42.626;25.386;2023-04-01T21:40:58;8.13;;;5.63;;
8060;SDS011;4073;42.626;25.386;2023-04-01T22:05:25;12.23;;;9.23;;
8060;SDS011;4073;42.626;25.386;2023-04-01T22:08:13;6.97;;;5.33;;
8060;SDS011;4073;42.626;25.386;2023-04-01T22:10:59;4.10;;;3.70;;
8060;SDS011;4073;42.626;25.386;2023-04-01T22:13:39;5.60;;;5.00;;
8060;SDS011;4073;42.626;25.386;2023-04-01T22:22:15;5.10;;;3.43;;
8060;SDS011;4073;42.626;25.386;2023-04-01T22:29:52;9.07;;;4.63;;
8060;SDS011;4073;42.626;25.386;2023-04-01T22:32:47;3.90;;;3.50;;
8060;SDS011;4073;42.626;25.386;2023-04-01T22:38:08;8.20;;;7.17;;
8060;SDS011;4073;42.626;25.386;2023-04-01T22:43:47;4.00;;;3.50;;
8060;SDS011;4073;42.626;25.386;2023-04-01T22:49:11;4.87;;;4.33;;
8060;SDS011;4073;42.626;25.386;2023-04-01T22:54:43;3.53;;;2.90;;
8060;SDS011;4073;42.626;25.386;2023-04-01T22:59:48;3.23;;;2.93;;
8060;SDS011;4073;42.626;25.386;2023-04-01T23:02:27;4.77;;;4.27;;
8060;SDS011;4073;42.626;25.386;2023-04-01T23:04:56;3.20;;;2.90;;
8060;SDS011;4073;42.626;25.386;2023-04-01T23:10:15;4.63;;;4.23;;
8060;SDS011;4073;42.626;25.386;2023-04-01T23:12:50;4.90;;;4.40;;
8060;SDS011;4073;42.626;25.386;2023-04-01T23:15:19;3.00;;;2.80;;
8060;SDS011;4073;42.626;25.386;2023-04-01T23:20:31;2.97;;;2.57;;
8060;SDS011;4073;42.626;25.386;2023-04-01T23:23:33;2.57;;;2.37;;
8060;SDS011;4073;42.626;25.386;2023-04-01T23:28:42;3.70;;;3.40;;
8060;SDS011;4073;42.626;25.386;2023-04-01T23:31:24;2.70;;;2.50;;
8060;SDS011;4073;42.626;25.386;2023-04-01T23:34:00;5.00;;;4.33;;
8060;SDS011;4073;42.626;25.386;2023-04-01T23:36:44;3.67;;;3.37;;
8060;SDS011;4073;42.626;25.386;2023-04-01T23:39:57;3.33;;;3.03;;
8060;SDS011;4073;42.626;25.386;2023-04-01T23:42:07;4.20;;;3.73;;
8060;SDS011;4073;42.626;25.386;2023-04-01T23:44:45;3.10;;;2.80;;
8060;SDS011;4073;42.626;25.386;2023-04-01T23:47:16;2.90;;;2.70;;
8060;SDS011;4073;42.626;25.386;2023-04-01T23:49:46;14.13;;;8.60;;
8060;SDS011;4073;42.626;25.386;2023-04-01T23:52:26;3.27;;;2.97;;
8060;SDS011;4073;42.626;25.386;2023-04-01T23:54:58;3.03;;;2.73;;
8060;SDS011;4073;42.626;25.386;2023-04-01T23:57:32;11.90;;;8.53;;
